createdAt,value
2022-10-01T00:23:54.938Z,9.93
2022-10-01T00:52:59.447Z,9.93
2022-10-01T01:21:44.634Z,10.08
2022-10-01T01:50:36.114Z,10.37
2022-10-01T02:19:39.769Z,10.48
2022-10-01T02:48:34.413Z,10.58
2022-10-01T03:17:34.390Z,10.77
2022-10-01T03:45:56.037Z,11.21
2022-10-01T04:14:17.100Z,11.92
2022-10-01T04:42:39.803Z,11.95
2022-10-01T05:11:25.444Z,11.14
2022-10-01T05:40:19.024Z,10.85
2022-10-01T06:09:13.680Z,10.84
2022-10-01T06:38:13.181Z,11.25
2022-10-01T07:07:13.247Z,11.45
2022-10-01T07:36:12.248Z,11.48
2022-10-01T08:05:09.815Z,11.45
2022-10-01T08:34:10.381Z,11.56
2022-10-01T09:03:09.181Z,11.58
2022-10-01T09:31:27.679Z,11.78
2022-10-01T09:59:50.348Z,12.09
2022-10-01T10:28:10.971Z,12.37
2022-10-01T10:56:35.096Z,12.78
2022-10-01T11:24:52.129Z,13.1
2022-10-01T11:53:15.311Z,13.68
2022-10-01T12:21:41.475Z,14
2022-10-01T12:50:10.502Z,14.63
2022-10-01T13:18:29.408Z,14.49
2022-10-01T13:47:24.606Z,14.67
2022-10-01T14:15:47.264Z,14.53
2022-10-01T14:44:02.086Z,14.37
2022-10-01T15:12:23.947Z,14.39
2022-10-01T15:40:45.489Z,14.61
2022-10-01T16:09:05.767Z,14.72
2022-10-01T16:37:25.786Z,14.83
2022-10-01T17:05:44.730Z,14.83
2022-10-01T17:34:06.673Z,14.91
2022-10-01T18:02:42.429Z,14.92
2022-10-01T18:30:47.702Z,15.09
2022-10-01T18:59:08.947Z,14.8
2022-10-01T19:28:06.623Z,14.83
2022-10-01T19:56:50.032Z,14.75
2022-10-01T20:25:38.944Z,15.01
2022-10-01T20:54:25.868Z,15.29
2022-10-01T21:23:26.691Z,15.2
2022-10-01T21:52:26.577Z,15.12
2022-10-01T22:21:22.009Z,15.14
2022-10-01T22:50:16.239Z,15.01
2022-10-01T23:19:16.484Z,14.82
2022-10-01T23:48:04.615Z,14.71
